createdAt,value
2018-09-01T00:00:45.438Z,5.50
2018-09-01T00:01:45.418Z,16.60
2018-09-01T00:02:45.379Z,16.10
2018-09-01T00:03:45.359Z,13.30
2018-09-01T00:04:45.318Z,9.00
2018-09-01T00:05:45.293Z,13.10
2018-09-01T00:06:45.267Z,12.50
2018-09-01T00:07:45.227Z,10.10
2018-09-01T00:08:45.196Z,13.90
2018-09-01T00:09:45.167Z,20.80
2018-09-01T00:10:45.137Z,8.10
2018-09-01T00:11:45.116Z,12.40
2018-09-01T00:12:45.075Z,8.40
2018-09-01T00:13:45.047Z,23.70
2018-09-01T00:14:45.017Z,11.70
2018-09-01T00:15:44.986Z,11.40
2018-09-01T00:16:44.961Z,11.20
2018-09-01T00:17:44.921Z,14.20
2018-09-01T00:18:44.892Z,12.30
2018-09-01T00:19:44.864Z,13.30
2018-09-01T00:20:44.831Z,4.60
2018-09-01T00:21:44.833Z,16.50
2018-09-01T00:22:44.770Z,12.70
2018-09-01T00:23:44.740Z,11.20
2018-09-01T00:24:44.711Z,10.00
2018-09-01T00:25:44.683Z,7.60
2018-09-01T00:26:44.657Z,13.60
2018-09-01T00:27:44.622Z,10.00
2018-09-01T00:28:44.588Z,9.50
2018-09-01T00:29:44.557Z,13.30
2018-09-01T00:30:44.579Z,15.50
2018-09-01T00:31:44.504Z,8.10
2018-09-01T00:32:44.462Z,10.60
2018-09-01T00:33:44.436Z,11.70
2018-09-01T00:34:44.408Z,10.20
2018-09-01T00:35:44.367Z,8.70
2018-09-01T00:36:44.349Z,9.50
2018-09-01T00:37:44.310Z,11.70
2018-09-01T00:38:44.281Z,11.10
2018-09-01T00:39:44.248Z,17.40
2018-09-01T00:40:44.226Z,12.50
2018-09-01T00:41:44.195Z,10.50
2018-09-01T00:42:44.156Z,6.30
2018-09-01T00:43:44.129Z,11.40
2018-09-01T00:44:44.096Z,11.80
2018-09-01T00:45:44.062Z,14.70
2018-09-01T00:46:44.039Z,7.70
2018-09-01T00:47:44.002Z,9.60
2018-09-01T00:48:43.970Z,8.40
2018-09-01T00:49:43.937Z,10.70
2018-09-01T00:50:43.907Z,17.00
2018-09-01T00:51:43.887Z,15.50
2018-09-01T00:52:43.846Z,11.40
2018-09-01T00:53:43.816Z,7.90
2018-09-01T00:54:43.784Z,16.30
2018-09-01T00:55:43.753Z,12.40
2018-09-01T00:56:43.729Z,9.70
2018-09-01T00:57:43.728Z,7.70
2018-09-01T00:58:43.659Z,16.30
2018-09-01T00:59:43.629Z,16.40
2018-09-01T01:00:43.596Z,12.70
2018-09-01T01:01:43.575Z,15.10
2018-09-01T01:02:43.534Z,9.60
2018-09-01T01:03:43.505Z,12.60
2018-09-01T01:04:43.479Z,10.30
2018-09-01T01:05:43.443Z,7.10
2018-09-01T01:06:43.422Z,13.70
2018-09-01T01:07:43.380Z,9.60
2018-09-01T01:08:43.347Z,10.00
2018-09-01T01:09:43.317Z,16.00
2018-09-01T01:10:43.286Z,11.70
2018-09-01T01:11:43.262Z,12.50
2018-09-01T01:12:43.222Z,11.30
2018-09-01T01:13:43.189Z,8.90
2018-09-01T01:14:43.160Z,12.30
2018-09-01T01:15:43.130Z,10.30
2018-09-01T01:16:43.105Z,15.70
2018-09-01T01:17:43.068Z,8.60
2018-09-01T01:18:43.033Z,7.10
2018-09-01T01:19:43.008Z,10.70
2018-09-01T01:20:42.978Z,15.80
2018-09-01T01:21:42.963Z,10.80
2018-09-01T01:22:42.922Z,11.00
2018-09-01T01:23:42.878Z,10.00
2018-09-01T01:24:42.848Z,7.50
2018-09-01T01:25:42.813Z,17.10
2018-09-01T01:26:42.782Z,16.40
2018-09-01T01:27:42.759Z,12.60
2018-09-01T01:28:42.737Z,12.80
2018-09-01T01:29:42.688Z,13.50
2018-09-01T01:30:42.656Z,10.80
2018-09-01T01:31:42.625Z,11.70
2018-09-01T01:32:42.602Z,11.70
2018-09-01T01:33:42.563Z,15.70
2018-09-01T01:34:42.532Z,12.50
2018-09-01T01:35:42.500Z,14.00
2018-09-01T01:36:42.468Z,8.70
2018-09-01T01:37:42.446Z,8.70
2018-09-01T01:38:42.403Z,16.80
2018-09-01T01:39:42.387Z,14.00
2018-09-01T01:40:42.344Z,10.50
2018-09-01T01:41:42.311Z,11.30
2018-09-01T01:42:42.287Z,15.10
2018-09-01T01:43:42.244Z,12.60
2018-09-01T01:44:42.215Z,12.90
2018-09-01T01:45:42.181Z,15.50
2018-09-01T01:46:42.149Z,8.60
2018-09-01T01:47:42.128Z,15.50
2018-09-01T01:48:42.088Z,18.30
2018-09-01T01:49:42.118Z,13.20
2018-09-01T01:50:42.026Z,15.00
2018-09-01T01:51:41.994Z,16.10
2018-09-01T01:52:41.969Z,16.30
2018-09-01T01:53:41.925Z,16.60
2018-09-01T01:54:41.895Z,10.90
2018-09-01T01:55:41.864Z,11.00
2018-09-01T01:56:41.841Z,11.00
2018-09-01T01:57:41.814Z,8.80
2018-09-01T01:58:41.783Z,10.70
2018-09-01T01:59:41.738Z,9.40
2018-09-01T02:00:41.707Z,13.30
2018-09-01T02:01:41.676Z,10.60
2018-09-01T02:02:41.648Z,18.70
2018-09-01T02:03:41.610Z,11.80
2018-09-01T02:04:41.577Z,8.40
2018-09-01T02:05:41.546Z,7.10
2018-09-01T02:06:41.512Z,9.10
2018-09-01T02:07:41.493Z,9.50
2018-09-01T02:08:41.452Z,11.80
2018-09-01T02:09:41.415Z,9.70
2018-09-01T02:10:41.386Z,11.50
2018-09-01T02:11:41.353Z,13.10
2018-09-01T02:12:41.334Z,13.60
2018-09-01T02:13:41.289Z,14.20
2018-09-01T02:14:41.254Z,16.90
2018-09-01T02:15:41.225Z,14.30
2018-09-01T02:16:41.193Z,18.70
2018-09-01T02:17:41.169Z,10.00
2018-09-01T02:18:41.129Z,13.70
2018-09-01T02:19:41.098Z,13.50
2018-09-01T02:20:41.059Z,12.40
2018-09-01T02:21:41.036Z,8.80
2018-09-01T02:22:41.006Z,11.80
2018-09-01T02:23:40.969Z,15.30
2018-09-01T02:24:40.935Z,15.50
2018-09-01T02:25:40.903Z,18.10
2018-09-01T02:26:40.869Z,20.00
2018-09-01T02:27:40.845Z,19.10
2018-09-01T02:28:40.807Z,10.60
2018-09-01T02:29:40.774Z,10.40
2018-09-01T02:30:40.744Z,12.20
2018-09-01T02:31:40.708Z,14.90
2018-09-01T02:32:40.686Z,11.10
2018-09-01T02:33:40.644Z,13.20
2018-09-01T02:34:40.613Z,9.70
2018-09-01T02:35:40.581Z,16.00
2018-09-01T02:36:40.548Z,7.80
2018-09-01T02:37:40.526Z,12.60
2018-09-01T02:38:40.484Z,15.10
2018-09-01T02:39:40.453Z,22.60
2018-09-01T02:40:40.421Z,17.90
2018-09-01T02:41:40.386Z,10.80
2018-09-01T02:42:40.360Z,24.70
2018-09-01T02:43:40.321Z,11.30
2018-09-01T02:44:40.290Z,12.90
2018-09-01T02:45:40.256Z,12.50
2018-09-01T02:46:40.226Z,13.70
2018-09-01T02:47:40.211Z,14.40
2018-09-01T02:48:40.161Z,11.30
2018-09-01T02:49:40.128Z,12.30
2018-09-01T02:50:40.094Z,13.70
2018-09-01T02:51:40.062Z,9.40
2018-09-01T02:52:40.033Z,14.00
2018-09-01T02:53:40.007Z,8.90
2018-09-01T02:54:39.964Z,22.60
2018-09-01T02:55:39.932Z,12.90
2018-09-01T02:56:39.903Z,9.80
2018-09-01T02:57:39.873Z,9.80
2018-09-01T02:58:39.844Z,16.30
2018-09-01T02:59:39.802Z,9.80
2018-09-01T03:00:39.773Z,10.30
2018-09-01T03:01:39.736Z,13.90
2018-09-01T03:02:39.705Z,15.30
2018-09-01T03:03:39.683Z,9.90
2018-09-01T03:04:39.640Z,9.70
2018-09-01T03:05:39.608Z,10.00
2018-09-01T03:06:39.575Z,13.10
2018-09-01T03:07:39.543Z,18.40
2018-09-01T03:08:39.518Z,12.00
2018-09-01T03:09:39.477Z,21.10
2018-09-01T03:10:39.447Z,11.50
2018-09-01T03:11:39.410Z,17.40
2018-09-01T03:12:39.379Z,20.50
2018-09-01T03:13:39.355Z,21.70
2018-09-01T03:14:39.314Z,14.10
2018-09-01T03:15:39.281Z,15.80
2018-09-01T03:16:39.249Z,19.50
2018-09-01T03:17:39.215Z,11.70
2018-09-01T03:18:39.192Z,18.90
2018-09-01T03:19:39.150Z,18.00
2018-09-01T03:20:39.117Z,26.50
2018-09-01T03:21:39.088Z,21.60
2018-09-01T03:22:39.053Z,19.20
2018-09-01T03:23:39.040Z,20.60
2018-09-01T03:24:38.996Z,22.50
2018-09-01T03:25:38.956Z,22.50
2018-09-01T03:26:38.921Z,19.60
2018-09-01T03:27:38.891Z,19.50
2018-09-01T03:28:38.864Z,21.60
2018-09-01T03:29:38.821Z,21.80
2018-09-01T03:30:38.790Z,25.10
2018-09-01T03:31:38.763Z,21.30
2018-09-01T03:32:38.733Z,18.00
2018-09-01T03:33:38.699Z,21.20
2018-09-01T03:34:38.657Z,20.50
2018-09-01T03:35:38.625Z,18.90
2018-09-01T03:36:38.595Z,21.40
2018-09-01T03:37:38.560Z,16.10
2018-09-01T03:38:38.534Z,22.10
2018-09-01T03:39:38.493Z,21.90
2018-09-01T03:40:38.463Z,21.50
2018-09-01T03:41:38.428Z,19.50
2018-09-01T03:42:38.396Z,13.40
2018-09-01T03:43:38.374Z,21.10
2018-09-01T03:44:38.329Z,24.20
2018-09-01T03:45:38.295Z,18.80
2018-09-01T03:46:38.261Z,20.80
2018-09-01T03:47:38.241Z,22.50
2018-09-01T03:48:38.215Z,25.60
2018-09-01T03:49:38.168Z,16.90
2018-09-01T03:50:38.133Z,23.40
2018-09-01T03:51:38.100Z,19.50
2018-09-01T03:52:38.067Z,19.80
2018-09-01T03:53:38.040Z,22.30
2018-09-01T03:54:37.999Z,15.20
2018-09-01T03:55:37.965Z,19.60
2018-09-01T03:56:37.936Z,12.40
2018-09-01T03:57:37.900Z,15.10
2018-09-01T03:58:37.877Z,16.10
2018-09-01T03:59:37.841Z,14.10
2018-09-01T04:00:37.808Z,13.40
2018-09-01T04:01:37.767Z,15.80
2018-09-01T04:02:37.736Z,18.20
2018-09-01T04:03:37.716Z,16.00
2018-09-01T04:04:37.675Z,17.30
2018-09-01T04:05:37.635Z,17.90
2018-09-01T04:06:37.602Z,17.70
2018-09-01T04:07:37.579Z,25.20
2018-09-01T04:08:37.548Z,14.40
2018-09-01T04:09:37.504Z,14.60
2018-09-01T04:10:37.475Z,17.50
2018-09-01T04:11:37.438Z,24.70
2018-09-01T04:12:37.409Z,16.10
2018-09-01T04:13:37.393Z,22.30
2018-09-01T04:14:37.342Z,24.00
2018-09-01T04:15:37.307Z,24.40
2018-09-01T04:16:37.272Z,17.50
2018-09-01T04:17:37.240Z,20.30
2018-09-01T04:18:37.204Z,24.90
2018-09-01T04:19:37.180Z,25.50
2018-09-01T04:20:37.140Z,23.50
2018-09-01T04:21:37.106Z,23.10
2018-09-01T04:22:37.076Z,28.70
2018-09-01T04:23:37.041Z,24.80
2018-09-01T04:24:37.016Z,26.20
2018-09-01T04:25:36.974Z,23.30
2018-09-01T04:26:36.946Z,22.00
2018-09-01T04:27:36.906Z,24.60
2018-09-01T04:28:36.871Z,25.30
2018-09-01T04:29:36.849Z,17.10
2018-09-01T04:30:36.809Z,21.90
2018-09-01T04:31:36.773Z,24.10
2018-09-01T04:32:36.744Z,24.40
2018-09-01T04:33:36.708Z,17.10
2018-09-01T04:34:36.688Z,27.40
2018-09-01T04:35:36.641Z,19.10
2018-09-01T04:36:36.607Z,29.90
2018-09-01T04:37:36.574Z,24.60
2018-09-01T04:38:36.542Z,16.00
2018-09-01T04:39:36.514Z,26.50
2018-09-01T04:40:36.475Z,22.50
2018-09-01T04:41:36.443Z,31.80
2018-09-01T04:42:36.407Z,19.40
2018-09-01T04:43:36.379Z,20.30
2018-09-01T04:44:36.355Z,18.10
2018-09-01T04:45:36.308Z,28.90
2018-09-01T04:46:36.275Z,29.40
2018-09-01T04:47:36.241Z,17.00
2018-09-01T04:48:36.208Z,24.10
2018-09-01T04:49:36.188Z,24.40
2018-09-01T04:50:36.142Z,24.90
2018-09-01T04:51:36.108Z,19.20
2018-09-01T04:52:36.076Z,21.60
2018-09-01T04:53:36.044Z,21.30
2018-09-01T04:54:36.015Z,18.70
2018-09-01T04:55:35.976Z,22.90
2018-09-01T04:56:35.942Z,21.90
2018-09-01T04:57:35.912Z,22.20
2018-09-01T04:58:35.875Z,20.70
2018-09-01T04:59:35.861Z,21.40
2018-09-01T05:00:35.808Z,22.30
2018-09-01T05:01:35.776Z,19.70
2018-09-01T05:02:35.753Z,21.80
2018-09-01T05:03:35.709Z,18.30
2018-09-01T05:04:35.685Z,17.50
2018-09-01T05:05:35.644Z,20.70
2018-09-01T05:06:35.606Z,15.10
2018-09-01T05:07:35.578Z,19.10
2018-09-01T05:08:35.547Z,21.30
2018-09-01T05:09:35.517Z,15.90
2018-09-01T05:10:35.477Z,32.40
2018-09-01T05:11:35.444Z,24.10
2018-09-01T05:12:35.410Z,18.40
2018-09-01T05:13:35.378Z,12.10
2018-09-01T05:14:35.351Z,20.30
2018-09-01T05:15:35.310Z,17.10
2018-09-01T05:16:35.277Z,13.60
2018-09-01T05:17:35.244Z,12.50
2018-09-01T05:18:35.210Z,20.40
2018-09-01T05:19:35.185Z,21.10
2018-09-01T05:20:35.143Z,14.80
2018-09-01T05:21:35.111Z,15.90
2018-09-01T05:22:35.077Z,18.00
2018-09-01T05:23:35.046Z,11.70
2018-09-01T05:24:35.022Z,17.10
2018-09-01T05:25:34.979Z,11.60
2018-09-01T05:26:34.944Z,21.10
2018-09-01T05:27:34.917Z,16.10
2018-09-01T05:28:34.878Z,14.50
2018-09-01T05:29:34.857Z,27.30
2018-09-01T05:30:34.811Z,11.50
2018-09-01T05:31:34.779Z,14.80
2018-09-01T05:32:34.747Z,12.40
2018-09-01T05:33:34.713Z,16.60
2018-09-01T05:34:34.693Z,19.60
2018-09-01T05:35:34.648Z,14.00
2018-09-01T05:36:34.637Z,16.00
2018-09-01T05:37:34.583Z,21.90
2018-09-01T05:38:34.549Z,13.90
2018-09-01T05:39:34.523Z,15.50
2018-09-01T05:40:34.486Z,20.60
2018-09-01T05:41:34.450Z,14.30
2018-09-01T05:42:34.422Z,20.20
2018-09-01T05:43:34.443Z,13.30
2018-09-01T05:44:34.372Z,16.50
2018-09-01T05:45:34.321Z,14.40
2018-09-01T05:46:35.266Z,13.10
2018-09-01T05:47:34.255Z,18.50
2018-09-01T05:48:34.222Z,18.60
2018-09-01T05:49:34.192Z,14.60
2018-09-01T05:50:34.194Z,22.40
2018-09-01T05:51:34.125Z,25.80
2018-09-01T05:52:34.092Z,19.20
2018-09-01T05:53:34.058Z,22.00
2018-09-01T05:54:34.029Z,24.60
2018-09-01T05:55:34.003Z,20.40
2018-09-01T05:56:33.962Z,18.10
2018-09-01T05:57:33.928Z,17.30
2018-09-01T05:58:33.897Z,20.80
2018-09-01T05:59:33.866Z,24.10
2018-09-01T06:00:33.896Z,18.60
2018-09-01T06:01:33.800Z,20.30
2018-09-01T06:02:33.767Z,21.40
2018-09-01T06:03:33.738Z,22.60
2018-09-01T06:04:33.705Z,19.20
2018-09-01T06:05:33.677Z,23.40
2018-09-01T06:06:33.699Z,34.50
2018-09-01T06:07:33.605Z,17.80
2018-09-01T06:08:33.580Z,17.60
2018-09-01T06:09:33.543Z,21.10
2018-09-01T06:10:33.520Z,19.90
2018-09-01T06:11:33.480Z,17.90
2018-09-01T06:12:33.446Z,19.00
2018-09-01T06:13:33.413Z,17.10
2018-09-01T06:14:33.383Z,28.20
2018-09-01T06:15:33.359Z,15.40
2018-09-01T06:16:33.325Z,15.50
2018-09-01T06:17:33.323Z,13.50
2018-09-01T06:18:33.256Z,13.10
2018-09-01T06:19:33.225Z,14.50
2018-09-01T06:20:33.205Z,10.00
2018-09-01T06:21:33.163Z,11.40
2018-09-01T06:22:33.130Z,13.80
2018-09-01T06:23:33.098Z,16.70
2018-09-01T06:24:33.071Z,13.20
2018-09-01T06:25:33.049Z,10.00
2018-09-01T06:26:33.011Z,7.80
2018-09-01T06:27:32.979Z,11.60
2018-09-01T06:28:32.954Z,14.00
2018-09-01T06:29:32.916Z,15.10
2018-09-01T06:30:32.895Z,14.00
2018-09-01T06:31:32.855Z,12.10
2018-09-01T06:32:32.827Z,9.10
2018-09-01T06:33:32.794Z,10.40
2018-09-01T06:34:32.769Z,17.30
2018-09-01T06:35:32.739Z,12.00
2018-09-01T06:36:32.703Z,10.40
2018-09-01T06:37:32.729Z,11.00
2018-09-01T06:38:32.639Z,17.50
2018-09-01T06:39:32.611Z,15.10
2018-09-01T06:40:32.586Z,22.90
2018-09-01T06:41:32.548Z,14.30
2018-09-01T06:42:32.517Z,20.00
2018-09-01T06:43:32.484Z,20.30
2018-09-01T06:44:32.460Z,14.80
2018-09-01T06:45:32.431Z,17.00
2018-09-01T06:46:32.392Z,13.60
2018-09-01T06:47:32.362Z,11.30
2018-09-01T06:48:32.335Z,17.10
2018-09-01T06:49:32.300Z,19.10
2018-09-01T06:50:32.282Z,17.40
2018-09-01T06:51:32.274Z,18.90
2018-09-01T06:52:32.209Z,17.30
2018-09-01T06:53:32.179Z,18.90
2018-09-01T06:54:32.144Z,17.90
2018-09-01T06:55:32.124Z,14.50
2018-09-01T06:56:32.087Z,21.20
2018-09-01T06:57:32.066Z,17.60
2018-09-01T06:58:32.028Z,23.50
2018-09-01T06:59:31.992Z,12.70
2018-09-01T07:00:31.970Z,22.00
2018-09-01T07:01:31.933Z,17.60
2018-09-01T07:02:31.903Z,14.10
2018-09-01T07:03:31.881Z,13.50
2018-09-01T07:04:31.837Z,18.70
2018-09-01T07:05:31.830Z,10.20
2018-09-01T07:06:31.778Z,14.40
2018-09-01T07:07:31.745Z,20.50
2018-09-01T07:08:31.721Z,15.50
2018-09-01T07:09:31.684Z,11.80
2018-09-01T07:10:31.662Z,14.20
2018-09-01T07:11:31.623Z,9.20
2018-09-01T07:12:31.599Z,14.30
2018-09-01T07:13:31.575Z,14.60
2018-09-01T07:14:31.533Z,20.40
2018-09-01T07:15:31.500Z,16.00
2018-09-01T07:16:31.479Z,12.80
2018-09-01T07:17:31.438Z,19.40
2018-09-01T07:18:31.407Z,14.00
2018-09-01T07:19:31.380Z,10.40
2018-09-01T07:20:31.347Z,10.60
2018-09-01T07:21:31.327Z,11.60
2018-09-01T07:22:31.285Z,15.10
2018-09-01T07:23:31.255Z,11.10
2018-09-01T07:24:31.226Z,11.10
2018-09-01T07:25:31.196Z,15.10
2018-09-01T07:26:31.173Z,16.10
2018-09-01T07:27:31.134Z,14.60
2018-09-01T07:28:31.107Z,16.30
2018-09-01T07:29:31.072Z,11.80
2018-09-01T07:30:31.230Z,15.30
2018-09-01T07:31:31.423Z,14.10
2018-09-01T07:32:30.982Z,9.40
2018-09-01T07:33:30.951Z,12.60
2018-09-01T07:34:30.927Z,13.00
2018-09-01T07:35:30.901Z,16.50
2018-09-01T07:36:30.868Z,11.20
2018-09-01T07:37:30.829Z,9.30
2018-09-01T07:38:30.801Z,7.00
2018-09-01T07:39:30.770Z,9.20
2018-09-01T07:40:30.746Z,9.90
2018-09-01T07:41:30.718Z,10.50
2018-09-01T07:42:30.681Z,7.60
2018-09-01T07:43:30.651Z,7.60
2018-09-01T07:44:30.619Z,9.90
2018-09-01T07:45:30.588Z,9.70
2018-09-01T07:46:30.565Z,9.60
2018-09-01T07:47:30.529Z,11.30
2018-09-01T07:48:30.500Z,9.20
2018-09-01T07:49:30.478Z,13.20
2018-09-01T07:50:30.444Z,11.90
2018-09-01T07:51:30.417Z,11.80
2018-09-01T07:52:30.380Z,9.30
2018-09-01T07:53:30.348Z,16.40
2018-09-01T07:54:30.347Z,16.20
2018-09-01T07:55:30.288Z,9.70
2018-09-01T07:56:30.266Z,14.30
2018-09-01T07:57:30.227Z,17.60
2018-09-01T07:58:30.200Z,6.80
2018-09-01T07:59:30.170Z,11.60
2018-09-01T08:00:30.146Z,13.50
2018-09-01T08:01:30.129Z,9.50
2018-09-01T08:02:30.080Z,11.70
2018-09-01T08:03:30.051Z,9.90
2018-09-01T08:04:30.021Z,12.20
2018-09-01T08:05:29.988Z,9.60
2018-09-01T08:06:29.970Z,9.60
2018-09-01T08:07:30.113Z,7.70
2018-09-01T08:08:29.904Z,11.30
2018-09-01T08:09:29.877Z,13.30
2018-09-01T08:10:29.842Z,12.90
2018-09-01T08:11:29.822Z,13.30
2018-09-01T08:12:29.784Z,12.00
2018-09-01T08:13:29.755Z,9.10
2018-09-01T08:14:29.754Z,10.70
2018-09-01T08:15:29.695Z,13.40
2018-09-01T08:16:30.281Z,11.10
2018-09-01T08:17:29.634Z,11.20
2018-09-01T08:18:29.609Z,6.50
2018-09-01T08:19:29.580Z,6.50
2018-09-01T08:20:29.552Z,11.60
2018-09-01T08:21:29.534Z,8.50
2018-09-01T08:22:29.489Z,3.30
2018-09-01T08:23:29.465Z,7.70
2018-09-01T08:24:29.432Z,10.40
2018-09-01T08:25:29.402Z,6.90
2018-09-01T08:26:29.382Z,7.90
2018-09-01T08:27:29.342Z,7.40
2018-09-01T08:28:29.313Z,7.10
2018-09-01T08:29:29.287Z,8.40
2018-09-01T08:30:29.255Z,4.80
2018-09-01T08:31:29.233Z,12.10
2018-09-01T08:32:29.199Z,7.00
2018-09-01T08:33:29.229Z,7.70
2018-09-01T08:34:29.139Z,6.80
2018-09-01T08:35:29.158Z,11.00
2018-09-01T08:36:29.130Z,9.10
2018-09-01T08:37:29.056Z,4.20
2018-09-01T08:38:29.137Z,9.60
2018-09-01T08:39:28.989Z,5.40
2018-09-01T08:40:28.972Z,10.50
2018-09-01T08:41:28.954Z,11.00
2018-09-01T08:42:28.955Z,5.50
2018-09-01T08:43:28.887Z,8.90
2018-09-01T08:44:28.850Z,8.70
2018-09-01T08:45:28.838Z,9.60
2018-09-01T08:46:28.790Z,9.20
2018-09-01T08:47:28.770Z,3.70
2018-09-01T08:48:28.740Z,11.70
2018-09-01T08:49:28.706Z,8.80
2018-09-01T08:50:28.685Z,6.00
2018-09-01T08:51:28.648Z,10.30
2018-09-01T08:52:28.628Z,10.40
2018-09-01T08:53:28.589Z,10.60
2018-09-01T08:54:28.568Z,6.10
2018-09-01T08:55:28.531Z,7.20
2018-09-01T08:56:28.547Z,9.50
2018-09-01T08:57:28.483Z,9.90
2018-09-01T08:58:28.446Z,7.60
2018-09-01T08:59:28.430Z,9.60
2018-09-01T09:00:28.389Z,10.90
2018-09-01T09:01:28.360Z,5.00
2018-09-01T09:02:28.341Z,5.20
2018-09-01T09:03:28.304Z,9.10
2018-09-01T09:04:28.275Z,6.90
2018-09-01T09:05:28.264Z,9.70
2018-09-01T09:06:28.218Z,5.20
2018-09-01T09:07:28.198Z,11.20
2018-09-01T09:08:28.161Z,11.00
2018-09-01T09:09:28.134Z,4.40
2018-09-01T09:10:28.102Z,7.00
2018-09-01T09:11:28.081Z,8.70
2018-09-01T09:12:28.054Z,8.50
2018-09-01T09:13:28.020Z,2.90
2018-09-01T09:14:27.992Z,6.00
2018-09-01T09:15:27.961Z,6.50
2018-09-01T09:16:27.935Z,5.90
2018-09-01T09:17:27.912Z,6.20
2018-09-01T09:18:27.905Z,7.00
2018-09-01T09:19:27.848Z,10.70
2018-09-01T09:20:27.822Z,11.80
2018-09-01T09:21:27.816Z,6.50
2018-09-01T09:22:27.771Z,5.20
2018-09-01T09:23:27.735Z,3.10
2018-09-01T09:24:27.707Z,7.30
2018-09-01T09:25:27.677Z,8.30
2018-09-01T09:26:27.651Z,6.10
2018-09-01T09:27:27.634Z,9.30
2018-09-01T09:28:27.596Z,7.50
2018-09-01T09:29:27.565Z,10.90
2018-09-01T09:30:27.539Z,8.20
2018-09-01T09:31:27.512Z,3.60
2018-09-01T09:32:27.492Z,7.70
2018-09-01T09:33:27.454Z,7.80
2018-09-01T09:34:27.466Z,12.00
2018-09-01T09:35:27.400Z,8.50
2018-09-01T09:36:27.372Z,10.90
2018-09-01T09:37:27.359Z,6.60
2018-09-01T09:38:27.316Z,8.90
2018-09-01T09:39:27.288Z,11.30
2018-09-01T09:40:27.263Z,7.10
2018-09-01T09:41:27.232Z,12.60
2018-09-01T09:42:27.215Z,5.30
2018-09-01T09:43:27.176Z,6.40
2018-09-01T09:44:27.150Z,7.60
2018-09-01T09:45:27.121Z,7.40
2018-09-01T09:46:27.105Z,14.50
2018-09-01T09:47:27.076Z,8.40
2018-09-01T09:48:27.040Z,3.70
2018-09-01T09:49:27.013Z,7.10
2018-09-01T09:50:26.989Z,11.30
2018-09-01T09:51:26.960Z,8.70
2018-09-01T09:52:26.938Z,4.60
2018-09-01T09:53:26.901Z,6.20
2018-09-01T09:54:26.874Z,5.50
2018-09-01T09:55:26.847Z,6.70
2018-09-01T09:56:26.821Z,9.80
2018-09-01T09:57:26.802Z,7.50
2018-09-01T09:58:26.765Z,4.10
2018-09-01T09:59:26.740Z,4.30
2018-09-01T10:00:26.711Z,9.30
2018-09-01T10:01:26.684Z,6.40
2018-09-01T10:02:26.688Z,5.40
2018-09-01T10:03:26.632Z,10.80
2018-09-01T10:04:26.603Z,4.60
2018-09-01T10:05:26.612Z,7.70
2018-09-01T10:06:26.550Z,8.70
2018-09-01T10:07:26.547Z,9.20
2018-09-01T10:08:26.496Z,8.90
2018-09-01T10:09:26.467Z,9.80
2018-09-01T10:10:26.441Z,3.70
2018-09-01T10:11:26.415Z,5.90
2018-09-01T10:12:26.386Z,4.50
2018-09-01T10:13:26.367Z,8.30
2018-09-01T10:14:26.333Z,7.80
2018-09-01T10:15:26.304Z,12.40
2018-09-01T10:16:26.279Z,9.00
2018-09-01T10:17:26.251Z,5.90
2018-09-01T10:18:26.230Z,9.70
2018-09-01T10:19:26.201Z,3.70
2018-09-01T10:20:26.202Z,8.80
2018-09-01T10:21:26.144Z,7.40
2018-09-01T10:22:26.117Z,8.40
2018-09-01T10:23:26.101Z,8.00
2018-09-01T10:24:26.065Z,10.50
2018-09-01T10:25:26.038Z,6.60
2018-09-01T10:26:26.018Z,7.50
2018-09-01T10:27:25.985Z,10.50
2018-09-01T10:28:25.967Z,4.10
2018-09-01T10:29:25.932Z,5.90
2018-09-01T10:30:25.908Z,5.90
2018-09-01T10:31:25.883Z,9.90
2018-09-01T10:32:25.859Z,8.40
2018-09-01T10:33:25.836Z,8.60
2018-09-01T10:34:25.804Z,9.50
2018-09-01T10:35:25.776Z,9.90
2018-09-01T10:36:25.749Z,8.10
2018-09-01T10:37:25.727Z,7.20
2018-09-01T10:38:25.724Z,4.50
2018-09-01T10:39:25.670Z,3.20
2018-09-01T10:40:25.644Z,7.50
2018-09-01T10:41:25.618Z,5.60
2018-09-01T10:42:25.596Z,3.20
2018-09-01T10:43:25.577Z,3.60
2018-09-01T10:44:25.579Z,4.10
2018-09-01T10:45:25.512Z,9.00
2018-09-01T10:46:25.489Z,5.50
2018-09-01T10:47:25.461Z,2.80
2018-09-01T10:48:25.442Z,5.80
2018-09-01T10:49:25.404Z,5.50
2018-09-01T10:50:25.379Z,7.60
2018-09-01T10:51:25.352Z,10.40
2018-09-01T10:52:25.328Z,6.30
2018-09-01T10:53:25.320Z,7.30
2018-09-01T10:54:25.278Z,2.60
2018-09-01T10:55:25.248Z,11.40
2018-09-01T10:56:25.223Z,4.90
2018-09-01T10:57:25.195Z,7.10
2018-09-01T10:58:25.179Z,7.10
2018-09-01T10:59:25.179Z,5.70
2018-09-01T11:00:25.115Z,8.30
2018-09-01T11:01:25.090Z,5.50
2018-09-01T11:02:25.065Z,8.40
2018-09-01T11:03:25.466Z,5.30
2018-09-01T11:04:25.013Z,4.50
2018-09-01T11:05:25.027Z,3.80
2018-09-01T11:06:24.961Z,11.30
2018-09-01T11:07:24.930Z,9.30
2018-09-01T11:08:24.916Z,9.90
2018-09-01T11:09:24.881Z,4.30
2018-09-01T11:10:24.852Z,10.10
2018-09-01T11:11:24.828Z,5.10
2018-09-01T11:12:24.802Z,5.10
2018-09-01T11:13:24.783Z,8.70
2018-09-01T11:14:24.749Z,6.20
2018-09-01T11:15:24.724Z,2.80
2018-09-01T11:16:24.699Z,5.60
2018-09-01T11:17:24.698Z,4.90
2018-09-01T11:18:24.654Z,7.90
2018-09-01T11:19:24.642Z,4.50
2018-09-01T11:20:24.599Z,6.70
2018-09-01T11:21:24.568Z,6.40
2018-09-01T11:22:24.543Z,4.80
2018-09-01T11:23:24.524Z,7.00
2018-09-01T11:24:24.491Z,4.90
2018-09-01T11:25:24.465Z,8.50
2018-09-01T11:26:24.438Z,5.90
2018-09-01T11:27:24.466Z,5.40
2018-09-01T11:28:24.401Z,6.00
2018-09-01T11:29:24.364Z,8.10
2018-09-01T11:30:24.338Z,8.10
2018-09-01T11:31:24.312Z,7.70
2018-09-01T11:32:24.288Z,8.90
2018-09-01T11:33:24.282Z,4.70
2018-09-01T11:34:24.236Z,6.90
2018-09-01T11:35:24.209Z,3.90
2018-09-01T11:36:24.200Z,7.90
2018-09-01T11:37:24.160Z,5.30
2018-09-01T11:38:24.133Z,8.40
2018-09-01T11:39:24.114Z,5.10
2018-09-01T11:40:24.083Z,7.10
2018-09-01T11:41:24.056Z,6.60
2018-09-01T11:42:24.103Z,8.20
2018-09-01T11:43:24.008Z,3.80
2018-09-01T11:44:23.986Z,4.40
2018-09-01T11:45:24.230Z,7.90
2018-09-01T11:46:23.925Z,7.90
2018-09-01T11:47:23.902Z,6.30
2018-09-01T11:48:23.891Z,9.00
2018-09-01T11:49:23.860Z,7.10
2018-09-01T11:50:23.823Z,7.30
2018-09-01T11:51:23.798Z,7.40
2018-09-01T11:52:23.780Z,4.20
2018-09-01T11:53:23.875Z,4.50
2018-09-01T11:54:23.732Z,5.10
2018-09-01T11:55:23.697Z,3.60
2018-09-01T11:56:23.673Z,7.60
2018-09-01T11:57:23.646Z,5.90
2018-09-01T11:58:23.620Z,9.40
2018-09-01T11:59:23.643Z,5.70
2018-09-01T12:00:23.568Z,5.40
2018-09-01T12:01:23.543Z,6.20
2018-09-01T12:02:23.516Z,9.80
2018-09-01T12:03:23.497Z,6.70
2018-09-01T12:04:23.476Z,5.70
2018-09-01T12:05:23.441Z,7.90
2018-09-01T12:06:23.415Z,6.20
2018-09-01T12:07:23.390Z,7.10
2018-09-01T12:08:23.364Z,5.90
2018-09-01T12:09:23.383Z,6.50
2018-09-01T12:10:23.318Z,6.80
2018-09-01T12:11:23.289Z,4.10
2018-09-01T12:12:23.264Z,9.30
2018-09-01T12:13:23.237Z,4.90
2018-09-01T12:14:23.224Z,8.40
2018-09-01T12:15:23.185Z,4.60
2018-09-01T12:16:23.160Z,6.80
2018-09-01T12:17:23.132Z,7.90
2018-09-01T12:18:23.108Z,3.90
2018-09-01T12:19:23.094Z,4.90
2018-09-01T12:20:23.055Z,10.50
2018-09-01T12:21:23.029Z,6.80
2018-09-01T12:22:23.072Z,2.20
2018-09-01T12:23:22.978Z,6.60
2018-09-01T12:24:22.961Z,4.70
2018-09-01T12:25:22.926Z,4.70
2018-09-01T12:26:22.905Z,4.30
2018-09-01T12:27:22.877Z,10.10
2018-09-01T12:28:22.893Z,8.30
2018-09-01T12:29:22.831Z,12.50
2018-09-01T12:30:22.797Z,7.00
2018-09-01T12:31:22.773Z,6.50
2018-09-01T12:32:22.748Z,5.00
2018-09-01T12:33:22.722Z,5.90
2018-09-01T12:34:22.706Z,5.50
2018-09-01T12:35:22.705Z,4.70
2018-09-01T12:36:22.763Z,7.00
2018-09-01T12:37:22.621Z,5.40
2018-09-01T12:38:22.600Z,7.20
2018-09-01T12:39:22.578Z,6.80
2018-09-01T12:40:22.549Z,5.90
2018-09-01T12:41:22.521Z,5.80
2018-09-01T12:42:22.496Z,6.30
2018-09-01T12:43:22.472Z,7.50
2018-09-01T12:44:22.456Z,3.20
2018-09-01T12:45:22.421Z,4.00
2018-09-01T12:46:22.396Z,8.50
2018-09-01T12:47:22.372Z,4.70
2018-09-01T12:48:22.346Z,5.30
2018-09-01T12:49:22.332Z,10.00
2018-09-01T12:50:22.297Z,6.60
2018-09-01T12:51:22.279Z,4.50
2018-09-01T12:52:22.247Z,9.20
2018-09-01T12:53:22.221Z,7.00
2018-09-01T12:54:22.204Z,6.30
2018-09-01T12:55:22.180Z,6.60
2018-09-01T12:56:22.146Z,7.50
2018-09-01T12:57:22.122Z,7.30
2018-09-01T12:58:22.099Z,3.70
2018-09-01T12:59:22.093Z,4.80
2018-09-01T13:00:22.047Z,8.70
2018-09-01T13:01:22.020Z,9.00
2018-09-01T13:02:21.995Z,6.00